Pronóstico
Mapa Interactivo
Aviación
Investigación
Hidrometeorología
Agrometeorología
Estaciones Automáticas
Transparencia
OMM WMO
Portada
Institución
Noticias
Imágenes
Tsunami
Historial
Boletines y Alertas
Contactos
Buscar Contenidos
Informe del Tiempo

SANTO DOMINGO 22 DE AGOSTO DEL 2017

 

FTDR31 MDSD 220400Z 

TAF  

 

TAF MDPP 220400Z 2206/2306 09010KT 9999 FEW018  PROB30 2206/2212 8000-RA SCT016 BECMG 2209/2211 00000KT=

 

TAF MDST 220400Z 2206/2306 12005KT 9999 SCT018 PROB30 2206/2212 8000 -TSRA FEW016CB BKN018 SCT070=

 

TAF MDPC 220400Z 2206/2306 11010KT 9999 FEW018=

 

TAF MDBH 220400Z 2206/2306 13010KT 9999 FEW016CB FEW018 SCT300 PROB30 2206/2212 7000 -TSRA FEW016CB FEW016 SCT070 BECMG 2210/2212 00000KT=

 

TAF MDJB 220400Z 2206/2306 00000KT 9999 SCT020 SCT300 BECMG 2213/2215 36010KT=

 

TAF MDSD 220400Z 2206/2306 03005KT 9999  FEW018CB SCT020 SCT300=

 

TAF MDLR 220400Z 2206/2306 00000KT 9999 FEW018CB  SCT020  PROB30 2206/2212  8000 –TSRA FEW016CB SCT018 BKN070 BECMG 2214/2216 14012KT=

 

TAF MDCY 220400Z 2206/2306 00000KT 9999 FEW018CB SCT018=

 

MDPP AEROPUERTO INTERNACIONAL LA UNION PUERTO PLATA

MDST AEROPUERTO INTERNACIONAL DE SANTIAGO

MDPC AEROPUERTO INTERNACIONAL PUNTA CANA

MDBH AEROPUERTO INTERNACIONAL DE BARAHONA

MDJB AEROPUERTO INTERNACIONAL JOAQUIN BALAGUER

MDSD AEROPUERTO INTERNACIONAL DE LAS AMERICAS

MDLR AEROPUERTO INTERNACIONAL LA ROMANA

MDCY AEROPUERTO INTERNACIONAL DE CATEY

 

MDSD/ARISLEYDA DE LA CRUZ DONNATORG

 

MDPP/MDST/L.CAMACHO MDPC/I.FELIZ MDBH/FELIPE MDJB/J.COLON MDLR/A.ESPINOSA MDCY/A.FROMETA.